Time;durP1;ratioP1;P1;durP2;ratioP2;P2;SDS_P1;SDS_P2;PMS_P1;PMS_P2;Temp;Humidity;BMP_temperature;BMP_pressure;BME280_temperature;BME280_humidity;BME280_pressure;Samples;Min_cycle;Max_cycle;Signal;HPM_P1;HPM_P2
2022/01/23 00:02:15;;;;;;;7.50;0.70;;;;;;;;;;4973007;28;20054;-63
2022/01/23 00:04:42;;;;;;;1.20;0.52;;;;;;;;;;4964757;28;20390;-64
2022/01/23 00:07:11;;;;;;;1.13;0.60;;;;;;;;;;4972394;28;20475;-62
2022/01/23 00:09:37;;;;;;;1.58;0.70;;;;;;;;;;4973544;28;20034;-61
2022/01/23 00:12:07;;;;;;;1.17;0.60;;;;;;;;;;4972288;28;20625;-65
2022/01/23 00:17:20;;;;;;;1.45;0.80;;;;;;;;;;4972554;28;20090;-64
2022/01/23 00:19:50;;;;;;;1.80;0.77;;;;;;;;;;4973223;28;20015;-61
2022/01/23 00:22:18;;;;;;;4.72;0.50;;;;;;;;;;4960468;28;20062;-66
2022/01/23 00:32:45;;;;;;;2.92;0.82;;;;;;;;;;4972901;28;20042;-64
2022/01/23 00:35:11;;;;;;;2.00;0.80;;;;;;;;;;4973824;28;20031;-61
2022/01/23 00:37:37;;;;;;;1.13;0.60;;;;;;;;;;4972823;28;20042;-61
2022/01/23 00:40:04;;;;;;;1.83;0.70;;;;;;;;;;4972484;28;20046;-61
2022/01/23 00:42:30;;;;;;;3.40;0.70;;;;;;;;;;4971991;28;20744;-61
2022/01/23 00:45:08;;;;;;;1.20;0.50;;;;;;;;;;4963776;28;20031;-61
2022/01/23 00:47:34;;;;;;;2.15;0.60;;;;;;;;;;4972978;28;20038;-65
2022/01/23 00:50:00;;;;;;;2.42;0.50;;;;;;;;;;4962174;28;20029;-66
2022/01/23 00:52:26;;;;;;;6.05;0.65;;;;;;;;;;4971748;28;20034;-62
2022/01/23 00:54:52;;;;;;;1.55;0.70;;;;;;;;;;4972963;28;20029;-64
2022/01/23 00:57:18;;;;;;;3.30;0.60;;;;;;;;;;4972233;28;20045;-62
2022/01/23 00:59:44;;;;;;;1.08;0.43;;;;;;;;;;4963061;28;20379;-63
2022/01/23 01:02:10;;;;;;;1.70;0.50;;;;;;;;;;4972491;28;20033;-65
2022/01/23 01:04:36;;;;;;;2.17;0.50;;;;;;;;;;4972896;28;20523;-60
2022/01/23 01:07:02;;;;;;;25.45;1.00;;;;;;;;;;4972093;28;20038;-64
2022/01/23 01:09:29;;;;;;;4.60;0.70;;;;;;;;;;4972579;28;20018;-66
2022/01/23 01:11:58;;;;;;;5.65;0.60;;;;;;;;;;4971018;28;20073;-60
2022/01/23 01:17:06;;;;;;;2.33;0.50;;;;;;;;;;4971515;28;20082;-59
2022/01/23 01:31:18;;;;;;;2.55;0.55;;;;;;;;;;4912718;29;21247;-63
2022/01/23 01:33:50;;;;;;;4.97;0.60;;;;;;;;;;4971731;28;20039;-65
2022/01/23 01:36:25;;;;;;;0.95;0.50;;;;;;;;;;4960370;28;20035;-62
2022/01/23 01:38:52;;;;;;;2.85;0.65;;;;;;;;;;4962038;28;20038;-60
2022/01/23 01:41:19;;;;;;;3.85;0.40;;;;;;;;;;4970893;28;20039;-63
2022/01/23 01:43:45;;;;;;;1.98;0.63;;;;;;;;;;4971735;28;20026;-62
2022/01/23 01:46:12;;;;;;;0.77;0.50;;;;;;;;;;4970906;28;21282;-60
2022/01/23 01:48:38;;;;;;;5.85;0.60;;;;;;;;;;4971921;28;20085;-60
2022/01/23 01:51:08;;;;;;;2.40;0.63;;;;;;;;;;4970766;28;20030;-66
2022/01/23 01:53:34;;;;;;;5.93;0.52;;;;;;;;;;4971770;28;20089;-64
2022/01/23 01:56:00;;;;;;;2.05;0.60;;;;;;;;;;4971535;28;20047;-62
2022/01/23 02:01:02;;;;;;;0.75;0.50;;;;;;;;;;4971672;28;20035;-64
2022/01/23 02:08:45;;;;;;;0.93;0.60;;;;;;;;;;4971662;28;20501;-62
2022/01/23 02:11:20;;;;;;;0.98;0.40;;;;;;;;;;4970913;28;20035;-65
2022/01/23 02:13:54;;;;;;;4.22;0.60;;;;;;;;;;4970831;28;20043;-60
2022/01/23 02:56:56;;;;;;;2.08;0.50;;;;;;;;;;4969536;28;20042;-64
2022/01/23 02:59:28;;;;;;;2.97;0.70;;;;;;;;;;4970085;28;20026;-63
2022/01/23 03:02:09;;;;;;;7.10;0.70;;;;;;;;;;4969915;28;20018;-59
2022/01/23 03:04:39;;;;;;;2.88;0.50;;;;;;;;;;4970933;28;20027;-62
2022/01/23 03:28:04;;;;;;;1.75;0.40;;;;;;;;;;4969453;28;20120;-63
2022/01/23 03:30:37;;;;;;;4.50;0.57;;;;;;;;;;4970763;28;20035;-61
2022/01/23 03:33:03;;;;;;;6.53;0.50;;;;;;;;;;4951531;28;20039;-64
2022/01/23 03:35:29;;;;;;;2.80;0.50;;;;;;;;;;4960833;28;20035;-61
2022/01/23 03:37:56;;;;;;;2.58;0.50;;;;;;;;;;4969812;28;20444;-61
2022/01/23 03:40:22;;;;;;;1.52;0.70;;;;;;;;;;4970787;28;20034;-60
2022/01/23 03:42:56;;;;;;;5.25;0.52;;;;;;;;;;4969550;28;20126;-62
2022/01/23 03:45:55;;;;;;;5.40;0.85;;;;;;;;;;4970919;28;20018;-63
2022/01/23 03:50:45;;;;;;;3.45;0.60;;;;;;;;;;4971268;28;20035;-63
2022/01/23 03:53:11;;;;;;;1.73;0.57;;;;;;;;;;4973158;28;20097;-67
2022/01/23 03:55:37;;;;;;;5.25;0.50;;;;;;;;;;4973771;28;20122;-60
2022/01/23 03:58:03;;;;;;;6.88;0.52;;;;;;;;;;4962334;28;20109;-60
2022/01/23 04:00:29;;;;;;;1.38;0.50;;;;;;;;;;4973648;28;20089;-60
2022/01/23 04:02:55;;;;;;;1.65;0.52;;;;;;;;;;4972451;28;20027;-66
2022/01/23 04:05:21;;;;;;;5.60;0.60;;;;;;;;;;4973011;28;20023;-61
2022/01/23 04:07:47;;;;;;;0.90;0.50;;;;;;;;;;4972592;28;20098;-60
2022/01/23 04:10:15;;;;;;;3.72;0.60;;;;;;;;;;4973104;28;20030;-62
2022/01/23 04:12:52;;;;;;;1.27;0.40;;;;;;;;;;4972158;28;20030;-60
2022/01/23 04:31:51;;;;;;;1.63;0.63;;;;;;;;;;4972831;28;20521;-61
2022/01/23 04:45:21;;;;;;;2.33;0.60;;;;;;;;;;4972879;28;20039;-61
2022/01/23 05:04:18;;;;;;;2.15;0.55;;;;;;;;;;4971722;28;20030;-62
2022/01/23 05:06:59;;;;;;;1.33;0.60;;;;;;;;;;4971721;28;20037;-61
2022/01/23 05:09:25;;;;;;;3.85;0.60;;;;;;;;;;4972369;28;20042;-61
2022/01/23 05:11:54;;;;;;;0.98;0.50;;;;;;;;;;4960126;28;20023;-61
2022/01/23 05:14:29;;;;;;;3.20;0.47;;;;;;;;;;4972060;28;20069;-61
2022/01/23 05:16:56;;;;;;;1.38;0.60;;;;;;;;;;4971062;28;20038;-61
2022/01/23 05:19:22;;;;;;;3.65;0.40;;;;;;;;;;4962171;28;20019;-64
2022/01/23 05:24:16;;;;;;;1.92;0.50;;;;;;;;;;4971833;28;20023;-61
2022/01/23 05:26:45;;;;;;;2.75;1.00;;;;;;;;;;4959682;28;20124;-63
2022/01/23 05:29:11;;;;;;;1.83;0.50;;;;;;;;;;4972856;28;20039;-61
2022/01/23 05:31:37;;;;;;;1.45;0.60;;;;;;;;;;4971933;28;20030;-61
2022/01/23 05:34:03;;;;;;;3.05;0.50;;;;;;;;;;4971992;28;20226;-62
2022/01/23 05:36:29;;;;;;;1.30;0.60;;;;;;;;;;4971067;28;20549;-61
2022/01/23 05:38:55;;;;;;;5.10;0.50;;;;;;;;;;4962009;28;20462;-61
2022/01/23 05:41:21;;;;;;;4.82;0.43;;;;;;;;;;4961384;28;20031;-60
2022/01/23 05:43:47;;;;;;;6.20;0.70;;;;;;;;;;4961499;28;20068;-65
2022/01/23 05:46:13;;;;;;;1.83;0.50;;;;;;;;;;4971349;28;20160;-65
2022/01/23 05:48:39;;;;;;;3.15;0.43;;;;;;;;;;4971820;28;20378;-64
2022/01/23 05:51:10;;;;;;;3.38;0.50;;;;;;;;;;4971438;28;20029;-65
2022/01/23 05:53:36;;;;;;;4.53;0.50;;;;;;;;;;4971655;28;20397;-63
2022/01/23 05:56:02;;;;;;;2.20;0.82;;;;;;;;;;4971140;28;20451;-66
2022/01/23 05:58:28;;;;;;;3.92;0.50;;;;;;;;;;4971251;28;20039;-62
2022/01/23 06:00:54;;;;;;;0.70;0.50;;;;;;;;;;4961492;28;20035;-61
2022/01/23 06:03:21;;;;;;;4.57;0.80;;;;;;;;;;4970311;28;20031;-61
2022/01/23 06:05:47;;;;;;;2.95;0.50;;;;;;;;;;4971209;28;20053;-61
2022/01/23 06:08:13;;;;;;;1.40;0.50;;;;;;;;;;4970097;28;20082;-61
2022/01/23 06:10:57;;;;;;;1.73;0.50;;;;;;;;;;4971157;28;20035;-62
2022/01/23 06:13:24;;;;;;;7.03;0.95;;;;;;;;;;4970187;28;20027;-61
2022/01/23 06:15:50;;;;;;;3.78;0.68;;;;;;;;;;4970967;28;20055;-61
2022/01/23 06:18:17;;;;;;;3.35;0.70;;;;;;;;;;4969943;28;20031;-63
2022/01/23 06:20:43;;;;;;;3.70;0.80;;;;;;;;;;4958718;28;20034;-64
2022/01/23 06:23:09;;;;;;;14.13;1.00;;;;;;;;;;4959490;28;20432;-64
2022/01/23 06:25:37;;;;;;;4.15;0.88;;;;;;;;;;4970955;28;20019;-62
2022/01/23 06:28:07;;;;;;;3.38;1.00;;;;;;;;;;4970252;28;21201;-62
2022/01/23 06:30:33;;;;;;;11.02;1.00;;;;;;;;;;4970953;28;20032;-63
2022/01/23 06:32:59;;;;;;;5.47;0.93;;;;;;;;;;4968793;28;20039;-62
2022/01/23 06:35:26;;;;;;;2.33;0.90;;;;;;;;;;4970997;28;20483;-63
2022/01/23 06:37:52;;;;;;;3.15;1.10;;;;;;;;;;4959641;28;20046;-62
2022/01/23 06:40:18;;;;;;;10.55;1.27;;;;;;;;;;4970921;28;20033;-63
2022/01/23 06:42:44;;;;;;;3.92;1.10;;;;;;;;;;4969699;28;20497;-62
2022/01/23 06:45:11;;;;;;;2.20;1.02;;;;;;;;;;4970983;28;20019;-62
2022/01/23 06:47:43;;;;;;;6.75;1.25;;;;;;;;;;4969902;28;20031;-62
2022/01/23 06:50:09;;;;;;;5.65;1.20;;;;;;;;;;4970835;28;20615;-63
2022/01/23 06:52:35;;;;;;;5.30;0.90;;;;;;;;;;4969926;28;20019;-62
2022/01/23 06:55:01;;;;;;;5.10;1.00;;;;;;;;;;4971595;28;20030;-62
2022/01/23 06:57:27;;;;;;;2.75;1.10;;;;;;;;;;4961273;28;20269;-62
2022/01/23 06:59:53;;;;;;;7.68;1.10;;;;;;;;;;4970846;28;21212;-61
2022/01/23 07:02:19;;;;;;;2.65;1.10;;;;;;;;;;4969915;28;20039;-62
2022/01/23 07:04:45;;;;;;;3.03;1.17;;;;;;;;;;4970694;28;20027;-62
2022/01/23 07:07:11;;;;;;;4.50;1.17;;;;;;;;;;4969624;28;20034;-62
2022/01/23 07:09:37;;;;;;;3.08;0.93;;;;;;;;;;4970701;28;20085;-62
2022/01/23 07:12:03;;;;;;;13.77;1.40;;;;;;;;;;4960690;28;20039;-62
2022/01/23 07:14:29;;;;;;;1.83;1.10;;;;;;;;;;4970232;28;20042;-62
2022/01/23 07:16:55;;;;;;;2.13;1.35;;;;;;;;;;4970726;28;20134;-62
2022/01/23 07:19:21;;;;;;;3.30;1.33;;;;;;;;;;4970406;28;20153;-63
2022/01/23 07:21:47;;;;;;;5.88;1.33;;;;;;;;;;4969980;28;20034;-62
2022/01/23 07:24:13;;;;;;;3.25;1.42;;;;;;;;;;4969322;28;20031;-63
2022/01/23 07:26:39;;;;;;;4.20;1.20;;;;;;;;;;4972373;28;20034;-63
2022/01/23 07:29:06;;;;;;;4.50;1.42;;;;;;;;;;4974480;28;20038;-62
2022/01/23 07:34:00;;;;;;;4.05;1.17;;;;;;;;;;4974431;28;20061;-59
2022/01/23 07:36:26;;;;;;;2.90;1.45;;;;;;;;;;4974750;28;20039;-59
2022/01/23 07:38:52;;;;;;;8.18;1.40;;;;;;;;;;4974047;28;20042;-61
2022/01/23 07:41:18;;;;;;;6.35;1.27;;;;;;;;;;4973091;28;20043;-63
2022/01/23 07:43:44;;;;;;;9.35;1.48;;;;;;;;;;4963434;28;20113;-62
2022/01/23 07:46:10;;;;;;;9.88;1.48;;;;;;;;;;4975204;28;20555;-63
2022/01/23 07:48:36;;;;;;;5.75;1.33;;;;;;;;;;4974342;28;20041;-62
2022/01/23 07:51:02;;;;;;;3.70;1.15;;;;;;;;;;4975165;28;20030;-62
2022/01/23 07:53:28;;;;;;;2.75;1.20;;;;;;;;;;4974288;28;20076;-61
2022/01/23 07:55:54;;;;;;;2.83;1.25;;;;;;;;;;4974293;28;20027;-61
2022/01/23 07:58:20;;;;;;;6.68;1.40;;;;;;;;;;4973265;28;20045;-62
2022/01/23 08:00:47;;;;;;;1.73;1.05;;;;;;;;;;4973873;28;20027;-62
2022/01/23 08:03:13;;;;;;;4.18;1.65;;;;;;;;;;4973517;28;20018;-62
2022/01/23 08:05:40;;;;;;;3.45;1.40;;;;;;;;;;4973838;28;20062;-62
2022/01/23 08:08:07;;;;;;;2.58;1.60;;;;;;;;;;4956220;28;20034;-64
2022/01/23 08:10:33;;;;;;;3.25;1.60;;;;;;;;;;4973584;28;20027;-62
2022/01/23 08:13:00;;;;;;;2.55;1.17;;;;;;;;;;4973615;28;20019;-62
2022/01/23 08:15:26;;;;;;;2.97;1.27;;;;;;;;;;4963065;28;20065;-63
2022/01/23 08:17:52;;;;;;;3.05;1.70;;;;;;;;;;4973919;28;20031;-63
2022/01/23 08:20:18;;;;;;;1.40;1.20;;;;;;;;;;4974202;28;20100;-62
2022/01/23 08:22:44;;;;;;;2.45;1.40;;;;;;;;;;4973745;28;20118;-61
2022/01/23 08:25:09;;;;;;;6.18;1.50;;;;;;;;;;4963705;28;20111;-65
2022/01/23 08:27:36;;;;;;;5.00;1.35;;;;;;;;;;4973693;28;20043;-63
2022/01/23 08:30:02;;;;;;;8.75;1.38;;;;;;;;;;4962608;28;20043;-63
2022/01/23 08:32:28;;;;;;;3.65;1.58;;;;;;;;;;4972665;28;20030;-62
2022/01/23 08:34:54;;;;;;;8.90;1.40;;;;;;;;;;4973232;28;20034;-62
2022/01/23 08:37:20;;;;;;;15.18;1.65;;;;;;;;;;4969879;28;20772;-62
2022/01/23 08:39:46;;;;;;;6.38;1.42;;;;;;;;;;4972255;28;20022;-61
2022/01/23 08:42:15;;;;;;;8.98;1.58;;;;;;;;;;4961506;28;20348;-61
2022/01/23 08:44:41;;;;;;;11.05;1.75;;;;;;;;;;4972569;28;20371;-62
2022/01/23 08:47:07;;;;;;;7.55;1.50;;;;;;;;;;4971869;28;20058;-62
2022/01/23 08:49:36;;;;;;;10.07;1.88;;;;;;;;;;4962120;28;20129;-61
2022/01/23 08:52:04;;;;;;;14.27;1.92;;;;;;;;;;4963543;28;20101;-64
2022/01/23 08:54:30;;;;;;;11.10;1.73;;;;;;;;;;4961969;28;20023;-61
2022/01/23 08:56:56;;;;;;;8.80;1.70;;;;;;;;;;4972043;28;20121;-61
2022/01/23 08:59:22;;;;;;;10.80;2.08;;;;;;;;;;4971898;28;20051;-62
2022/01/23 09:01:48;;;;;;;15.68;2.03;;;;;;;;;;4972029;28;20132;-61
2022/01/23 09:04:17;;;;;;;5.72;1.65;;;;;;;;;;4960808;28;20054;-62
2022/01/23 09:06:44;;;;;;;7.05;1.40;;;;;;;;;;4971784;28;20031;-62
2022/01/23 09:09:15;;;;;;;4.43;1.73;;;;;;;;;;4971489;28;20023;-62
2022/01/23 09:11:53;;;;;;;4.57;1.70;;;;;;;;;;4960641;28;20077;-61
2022/01/23 09:14:20;;;;;;;3.75;1.88;;;;;;;;;;4971353;28;20094;-61
2022/01/23 09:16:48;;;;;;;4.25;1.83;;;;;;;;;;4971792;28;20414;-63
2022/01/23 09:19:16;;;;;;;3.13;1.60;;;;;;;;;;4970753;28;20026;-63
2022/01/23 09:21:42;;;;;;;5.93;1.70;;;;;;;;;;4954285;28;20046;-63
2022/01/23 09:24:08;;;;;;;4.93;1.30;;;;;;;;;;4971582;28;20532;-63
2022/01/23 09:26:36;;;;;;;4.53;1.80;;;;;;;;;;4971645;28;20023;-63
2022/01/23 09:29:11;;;;;;;5.07;1.63;;;;;;;;;;4971646;28;20034;-63
2022/01/23 09:31:49;;;;;;;11.02;1.73;;;;;;;;;;4971531;28;20034;-63
2022/01/23 09:34:16;;;;;;;4.28;1.70;;;;;;;;;;4971450;28;20023;-63
2022/01/23 09:36:43;;;;;;;5.38;1.95;;;;;;;;;;4970942;28;20041;-63
2022/01/23 09:39:10;;;;;;;4.13;1.77;;;;;;;;;;4962350;28;20477;-63
2022/01/23 09:41:40;;;;;;;8.98;1.98;;;;;;;;;;4971478;28;20027;-62
2022/01/23 09:44:06;;;;;;;7.60;1.77;;;;;;;;;;4961185;28;20385;-63
2022/01/23 09:46:32;;;;;;;3.20;1.63;;;;;;;;;;4961558;28;20522;-64
2022/01/23 09:48:59;;;;;;;6.38;1.88;;;;;;;;;;4971072;28;20492;-64
2022/01/23 09:51:25;;;;;;;2.85;1.70;;;;;;;;;;4970233;28;20114;-64
2022/01/23 09:53:55;;;;;;;4.47;1.67;;;;;;;;;;4970549;28;20039;-63
2022/01/23 09:56:27;;;;;;;5.50;1.83;;;;;;;;;;4971112;28;20034;-63
2022/01/23 09:58:57;;;;;;;2.50;1.98;;;;;;;;;;4971293;28;20030;-61
2022/01/23 10:01:24;;;;;;;4.47;1.90;;;;;;;;;;4971169;28;20022;-60
2022/01/23 10:03:53;;;;;;;3.60;2.28;;;;;;;;;;4971267;28;20031;-62
2022/01/23 10:06:20;;;;;;;4.32;2.25;;;;;;;;;;4970239;28;20023;-60
2022/01/23 10:08:47;;;;;;;2.72;2.13;;;;;;;;;;4970516;28;20027;-62
2022/01/23 10:11:14;;;;;;;3.70;2.08;;;;;;;;;;4969986;28;20462;-61
2022/01/23 10:13:41;;;;;;;3.20;2.05;;;;;;;;;;4970374;28;20089;-59
2022/01/23 10:16:07;;;;;;;6.38;2.40;;;;;;;;;;4970203;28;20038;-60
2022/01/23 10:18:33;;;;;;;3.40;2.20;;;;;;;;;;4971138;28;20034;-59
2022/01/23 10:20:59;;;;;;;4.05;2.50;;;;;;;;;;4970663;28;20025;-65
2022/01/23 10:23:27;;;;;;;8.50;2.42;;;;;;;;;;4970825;28;20401;-63
2022/01/23 10:25:53;;;;;;;11.13;3.00;;;;;;;;;;4969899;28;20073;-65
2022/01/23 10:28:28;;;;;;;5.68;3.00;;;;;;;;;;4970591;28;20153;-62
2022/01/23 10:30:56;;;;;;;5.80;2.45;;;;;;;;;;4969416;28;20031;-60
2022/01/23 10:33:22;;;;;;;3.92;2.58;;;;;;;;;;4970718;28;20085;-59
2022/01/23 10:35:57;;;;;;;5.43;2.03;;;;;;;;;;4970343;28;20022;-62
2022/01/23 10:38:24;;;;;;;6.22;2.53;;;;;;;;;;4970345;28;20023;-60
2022/01/23 10:41:05;;;;;;;4.47;2.50;;;;;;;;;;4969062;28;20062;-60
2022/01/23 10:49:00;;;;;;;20.17;2.50;;;;;;;;;;4968769;28;20065;-61
2022/01/23 10:51:31;;;;;;;21.13;2.55;;;;;;;;;;4968229;28;20031;-61
2022/01/23 10:54:00;;;;;;;9.43;1.90;;;;;;;;;;4970207;28;20073;-61
2022/01/23 10:56:27;;;;;;;10.43;1.92;;;;;;;;;;4969465;28;20047;-61
2022/01/23 10:58:58;;;;;;;9.98;2.00;;;;;;;;;;4970536;28;20035;-62
2022/01/23 11:01:24;;;;;;;5.80;2.33;;;;;;;;;;4969203;28;20057;-63
2022/01/23 11:04:11;;;;;;;7.32;2.05;;;;;;;;;;4960092;28;20031;-60
2022/01/23 11:06:55;;;;;;;13.15;2.50;;;;;;;;;;4969759;28;20033;-60
2022/01/23 11:09:25;;;;;;;5.35;2.15;;;;;;;;;;4959101;28;20062;-60
2022/01/23 11:11:59;;;;;;;8.68;2.45;;;;;;;;;;4958423;28;20045;-62
2022/01/23 11:17:26;;;;;;;7.43;2.00;;;;;;;;;;4969440;28;20066;-64
2022/01/23 11:19:56;;;;;;;4.07;2.20;;;;;;;;;;4969669;28;20488;-59
2022/01/23 11:22:25;;;;;;;4.82;2.83;;;;;;;;;;4968622;28;20058;-60
2022/01/23 11:24:52;;;;;;;5.35;2.60;;;;;;;;;;4969235;28;20066;-60
2022/01/23 11:27:20;;;;;;;4.50;2.10;;;;;;;;;;4968568;28;20023;-63
2022/01/23 11:30:00;;;;;;;4.78;2.17;;;;;;;;;;4969083;28;20548;-61
2022/01/23 11:32:30;;;;;;;5.25;2.47;;;;;;;;;;4969607;28;20481;-59
2022/01/23 11:35:02;;;;;;;8.82;2.85;;;;;;;;;;4970206;28;20105;-59
2022/01/23 11:37:28;;;;;;;8.68;2.65;;;;;;;;;;4969238;28;20031;-62
2022/01/23 11:40:00;;;;;;;5.72;2.65;;;;;;;;;;4969747;28;20042;-62
2022/01/23 11:51:18;;;;;;;12.00;2.70;;;;;;;;;;4969456;28;20061;-64
2022/01/23 11:53:50;;;;;;;6.38;2.80;;;;;;;;;;4970016;28;20129;-61
2022/01/23 11:56:29;;;;;;;7.25;2.80;;;;;;;;;;4970195;28;20035;-61
2022/01/23 11:59:24;;;;;;;6.38;2.95;;;;;;;;;;4970149;28;20026;-60
2022/01/23 12:02:12;;;;;;;7.65;3.15;;;;;;;;;;4958904;28;20031;-60
2022/01/23 12:04:43;;;;;;;6.18;2.75;;;;;;;;;;4960040;28;20468;-63
2022/01/23 12:07:12;;;;;;;7.55;3.40;;;;;;;;;;4960166;28;20026;-62
2022/01/23 12:09:38;;;;;;;8.90;3.70;;;;;;;;;;4959922;28;20022;-61
2022/01/23 12:12:07;;;;;;;6.45;3.03;;;;;;;;;;4970297;28;20482;-62
2022/01/23 12:17:06;;;;;;;;;;;;;;;;;;4973388;28;20049;-61
2022/01/23 12:19:33;;;;;;;12.30;3.45;;;;;;;;;;4955783;28;19918;-61
2022/01/23 12:22:19;;;;;;;10.82;3.17;;;;;;;;;;4973555;28;20015;-60
2022/01/23 12:24:49;;;;;;;5.50;3.05;;;;;;;;;;4973132;28;20026;-62
2022/01/23 12:27:21;;;;;;;4.47;3.10;;;;;;;;;;4973348;28;20018;-60
2022/01/23 12:29:47;;;;;;;8.70;3.20;;;;;;;;;;4964539;28;20157;-60
2022/01/23 12:32:17;;;;;;;3.78;3.10;;;;;;;;;;4972018;28;20126;-60
2022/01/23 12:34:46;;;;;;;5.40;3.08;;;;;;;;;;4971915;28;20042;-62
2022/01/23 12:37:12;;;;;;;5.30;2.65;;;;;;;;;;4962789;28;20042;-62
2022/01/23 12:39:38;;;;;;;14.63;3.67;;;;;;;;;;4972562;28;20019;-61
2022/01/23 12:42:05;;;;;;;13.30;2.95;;;;;;;;;;4963141;28;20130;-61
2022/01/23 12:44:36;;;;;;;4.18;2.80;;;;;;;;;;4970924;28;20783;-63
2022/01/23 12:47:04;;;;;;;7.00;3.00;;;;;;;;;;4972189;28;20026;-64
2022/01/23 12:49:34;;;;;;;4.82;2.83;;;;;;;;;;4972815;28;20062;-64
2022/01/23 12:52:00;;;;;;;7.13;2.95;;;;;;;;;;4971222;28;20030;-60
2022/01/23 12:54:28;;;;;;;6.95;3.78;;;;;;;;;;4972308;28;20471;-63
2022/01/23 12:56:54;;;;;;;5.40;2.63;;;;;;;;;;4971539;28;20074;-63
2022/01/23 12:59:29;;;;;;;9.30;2.60;;;;;;;;;;4962991;28;20026;-62
2022/01/23 13:02:01;;;;;;;6.65;3.20;;;;;;;;;;4972276;28;20454;-65
2022/01/23 13:04:30;;;;;;;7.72;3.08;;;;;;;;;;4972417;28;20026;-66
2022/01/23 13:07:01;;;;;;;4.07;2.90;;;;;;;;;;4972643;28;20035;-64
2022/01/23 13:12:05;;;;;;;4.63;2.55;;;;;;;;;;4971060;28;20519;-66
2022/01/23 13:14:58;;;;;;;11.48;3.22;;;;;;;;;;4962304;28;20041;-65
2022/01/23 13:17:39;;;;;;;3.30;2.40;;;;;;;;;;4971767;28;20049;-65
2022/01/23 13:29:32;;;;;;;8.45;2.83;;;;;;;;;;4971506;28;20042;-67
2022/01/23 13:31:35;;;;;;;6.45;2.53;;;;;;;;;;4971993;28;20576;-65
2022/01/23 13:34:01;;;;;;;4.28;3.10;;;;;;;;;;4972130;28;20015;-69
2022/01/23 13:36:27;;;;;;;3.00;2.50;;;;;;;;;;4972034;28;20047;-65
2022/01/23 13:38:56;;;;;;;3.67;2.30;;;;;;;;;;4971612;28;20041;-65
2022/01/23 13:41:26;;;;;;;6.63;2.55;;;;;;;;;;4972260;28;20035;-64
2022/01/23 13:50:36;;;;;;;16.48;2.70;;;;;;;;;;4972011;28;20181;-66
2022/01/23 13:58:13;;;;;;;24.17;3.17;;;;;;;;;;4971474;28;20093;-63
2022/01/23 14:00:33;;;;;;;18.45;2.50;;;;;;;;;;4970364;28;20031;-64
2022/01/23 14:02:59;;;;;;;7.28;2.20;;;;;;;;;;4970876;28;20046;-63
2022/01/23 14:05:30;;;;;;;17.58;2.30;;;;;;;;;;4971228;28;20038;-62
2022/01/23 14:07:58;;;;;;;16.33;3.40;;;;;;;;;;4953607;28;20034;-64
2022/01/23 14:10:29;;;;;;;12.70;2.50;;;;;;;;;;4971750;28;20080;-64
2022/01/23 14:13:03;;;;;;;5.70;2.10;;;;;;;;;;4971117;28;20038;-64
2022/01/23 14:15:29;;;;;;;7.15;2.60;;;;;;;;;;4970908;28;20142;-63
2022/01/23 14:17:57;;;;;;;10.52;2.97;;;;;;;;;;4969785;28;20165;-63
2022/01/23 14:20:23;;;;;;;5.03;2.67;;;;;;;;;;4961297;28;20142;-66
2022/01/23 14:22:51;;;;;;;7.18;2.35;;;;;;;;;;4971076;28;20058;-63
2022/01/23 14:25:18;;;;;;;14.85;2.97;;;;;;;;;;4970856;28;20074;-62
2022/01/23 14:28:00;;;;;;;12.57;2.75;;;;;;;;;;4971132;28;20026;-62
2022/01/23 14:30:29;;;;;;;26.65;3.20;;;;;;;;;;4971546;28;20030;-63
2022/01/23 14:32:56;;;;;;;12.10;3.20;;;;;;;;;;4969621;28;20035;-64
2022/01/23 14:35:26;;;;;;;11.88;2.72;;;;;;;;;;4971463;28;20053;-63
2022/01/23 14:37:52;;;;;;;16.50;2.90;;;;;;;;;;4971309;28;20035;-64
2022/01/23 14:40:20;;;;;;;12.02;2.80;;;;;;;;;;4971382;28;20042;-61
2022/01/23 14:43:01;;;;;;;25.67;3.10;;;;;;;;;;4970870;28;20038;-65
2022/01/23 14:45:29;;;;;;;22.80;3.13;;;;;;;;;;4971750;28;20023;-64
2022/01/23 14:47:55;;;;;;;10.68;2.42;;;;;;;;;;4952677;28;20035;-64
2022/01/23 14:50:23;;;;;;;7.35;2.40;;;;;;;;;;4970468;28;20050;-66
2022/01/23 14:52:49;;;;;;;13.70;2.60;;;;;;;;;;4970514;28;20042;-64
2022/01/23 14:55:15;;;;;;;13.73;2.80;;;;;;;;;;4970617;28;20522;-66
2022/01/23 14:57:43;;;;;;;5.03;2.08;;;;;;;;;;4970831;28;20489;-61
2022/01/23 15:00:11;;;;;;;8.60;2.25;;;;;;;;;;4970826;28;20015;-63
2022/01/23 15:02:37;;;;;;;16.52;2.47;;;;;;;;;;4970433;28;20023;-65
2022/01/23 15:05:04;;;;;;;10.75;2.40;;;;;;;;;;4970639;28;20023;-62
2022/01/23 15:07:34;;;;;;;16.15;2.30;;;;;;;;;;4971486;28;20027;-64
2022/01/23 15:10:00;;;;;;;11.48;2.35;;;;;;;;;;4971198;28;20034;-64
2022/01/23 15:12:26;;;;;;;10.27;2.25;;;;;;;;;;4970329;28;20029;-61
2022/01/23 15:14:52;;;;;;;7.90;2.10;;;;;;;;;;4970419;28;20030;-64
2022/01/23 15:17:20;;;;;;;10.65;1.85;;;;;;;;;;4961954;28;20035;-66
2022/01/23 15:19:46;;;;;;;17.88;2.55;;;;;;;;;;4971899;28;20055;-66
2022/01/23 15:22:12;;;;;;;7.68;2.00;;;;;;;;;;4970616;28;20031;-65
2022/01/23 15:24:38;;;;;;;8.15;1.95;;;;;;;;;;4970956;28;20047;-62
2022/01/23 15:27:05;;;;;;;9.85;2.47;;;;;;;;;;4961314;28;20746;-62
2022/01/23 15:29:31;;;;;;;14.25;1.88;;;;;;;;;;4968526;28;20023;-61
2022/01/23 15:31:57;;;;;;;5.25;2.08;;;;;;;;;;4969698;28;20026;-64
2022/01/23 15:34:23;;;;;;;8.65;1.98;;;;;;;;;;4970436;28;20051;-62
2022/01/23 15:36:52;;;;;;;7.15;2.05;;;;;;;;;;4960641;28;20077;-62
2022/01/23 15:39:19;;;;;;;6.30;2.00;;;;;;;;;;4969446;28;20086;-62
2022/01/23 15:41:45;;;;;;;4.63;1.77;;;;;;;;;;4959357;28;20030;-62
2022/01/23 15:44:11;;;;;;;12.70;2.38;;;;;;;;;;4970062;28;20035;-63
2022/01/23 15:46:37;;;;;;;9.02;2.28;;;;;;;;;;4960584;28;21177;-63
2022/01/23 15:49:04;;;;;;;7.05;2.50;;;;;;;;;;4973194;28;20043;-63
2022/01/23 15:51:29;;;;;;;20.17;3.28;;;;;;;;;;4973935;28;20538;-62
2022/01/23 15:53:55;;;;;;;4.88;2.47;;;;;;;;;;4974117;28;20106;-62
2022/01/23 15:56:21;;;;;;;11.40;2.92;;;;;;;;;;4972784;28;20557;-63
2022/01/23 15:58:47;;;;;;;3.30;2.45;;;;;;;;;;4973865;28;20475;-62
2022/01/23 16:01:16;;;;;;;6.88;3.25;;;;;;;;;;4973790;28;20085;-63
2022/01/23 16:03:42;;;;;;;12.13;3.05;;;;;;;;;;4973915;28;20015;-62
2022/01/23 16:06:08;;;;;;;9.00;2.85;;;;;;;;;;4973669;28;20125;-63
2022/01/23 16:08:36;;;;;;;11.18;3.10;;;;;;;;;;4974098;28;20510;-65
2022/01/23 16:11:02;;;;;;;9.85;3.50;;;;;;;;;;4961875;28;20636;-63
2022/01/23 16:13:30;;;;;;;8.77;3.03;;;;;;;;;;4973407;28;20043;-63
2022/01/23 16:15:57;;;;;;;7.45;3.05;;;;;;;;;;4974153;28;20058;-63
2022/01/23 16:18:23;;;;;;;5.50;2.90;;;;;;;;;;4973990;28;20038;-63
2022/01/23 16:20:49;;;;;;;8.75;3.10;;;;;;;;;;4973720;28;20023;-62
2022/01/23 16:23:15;;;;;;;4.70;2.80;;;;;;;;;;4972678;28;20050;-64
2022/01/23 16:25:41;;;;;;;6.90;2.85;;;;;;;;;;4972970;28;20096;-62
2022/01/23 16:28:07;;;;;;;6.82;3.20;;;;;;;;;;4972364;28;20101;-62
2022/01/23 16:30:45;;;;;;;3.80;2.90;;;;;;;;;;4973194;28;20036;-63
2022/01/23 16:33:11;;;;;;;18.17;3.05;;;;;;;;;;4974126;28;20651;-64
2022/01/23 16:35:37;;;;;;;8.68;2.72;;;;;;;;;;4973974;28;20069;-64
2022/01/23 16:38:03;;;;;;;6.57;3.45;;;;;;;;;;4974188;28;20644;-63
2022/01/23 16:40:29;;;;;;;7.55;3.63;;;;;;;;;;4973735;28;20489;-63
2022/01/23 16:42:55;;;;;;;5.15;3.50;;;;;;;;;;4964027;28;20043;-64
2022/01/23 16:45:21;;;;;;;8.30;3.88;;;;;;;;;;4973691;28;20395;-63
2022/01/23 16:47:47;;;;;;;13.63;3.90;;;;;;;;;;4973699;28;20039;-62
2022/01/23 16:50:14;;;;;;;6.70;4.25;;;;;;;;;;4973527;28;20019;-62
2022/01/23 16:52:40;;;;;;;11.57;4.35;;;;;;;;;;4974576;28;20470;-63
2022/01/23 16:55:06;;;;;;;6.18;4.13;;;;;;;;;;4975749;28;20244;-64
2022/01/23 16:57:32;;;;;;;7.47;4.05;;;;;;;;;;4974425;28;20039;-63
2022/01/23 16:59:58;;;;;;;5.65;4.35;;;;;;;;;;4972093;28;20029;-63
2022/01/23 17:02:24;;;;;;;10.85;4.53;;;;;;;;;;4972751;28;20037;-63
2022/01/23 17:04:50;;;;;;;7.53;4.82;;;;;;;;;;4974302;28;20030;-63
2022/01/23 17:07:16;;;;;;;9.35;5.05;;;;;;;;;;4974503;28;20379;-63
2022/01/23 17:09:42;;;;;;;10.48;4.60;;;;;;;;;;4974321;28;20019;-63
2022/01/23 17:12:08;;;;;;;8.98;4.68;;;;;;;;;;4973740;28;20039;-63
2022/01/23 17:14:34;;;;;;;7.88;5.00;;;;;;;;;;4973180;28;20042;-62
2022/01/23 17:17:00;;;;;;;12.52;5.63;;;;;;;;;;4972259;28;20058;-62
2022/01/23 17:19:26;;;;;;;7.43;5.45;;;;;;;;;;4971613;28;20063;-66
2022/01/23 17:21:52;;;;;;;9.23;5.10;;;;;;;;;;4972082;28;20042;-63
2022/01/23 17:24:19;;;;;;;10.73;5.20;;;;;;;;;;4973447;28;20065;-62
2022/01/23 17:26:45;;;;;;;11.68;6.40;;;;;;;;;;4960534;28;20029;-64
2022/01/23 17:29:11;;;;;;;12.93;5.55;;;;;;;;;;4972124;28;20026;-63
2022/01/23 17:31:37;;;;;;;12.23;5.78;;;;;;;;;;4973313;28;20019;-63
2022/01/23 17:34:03;;;;;;;11.25;6.70;;;;;;;;;;4971537;28;20061;-62
2022/01/23 17:36:29;;;;;;;12.10;6.90;;;;;;;;;;4972387;28;20456;-62
2022/01/23 17:38:55;;;;;;;9.88;6.43;;;;;;;;;;4974940;28;20027;-62
2022/01/23 17:41:21;;;;;;;9.65;6.45;;;;;;;;;;4974784;28;20443;-62
2022/01/23 17:43:48;;;;;;;12.48;6.78;;;;;;;;;;4974543;28;20029;-63
2022/01/23 17:46:21;;;;;;;10.23;7.07;;;;;;;;;;4957300;28;20025;-63
2022/01/23 17:49:02;;;;;;;;;;;;;;;;;;4974836;28;20026;-62
2022/01/23 17:51:29;;;;;;;15.48;7.28;;;;;;;;;;4974313;28;19918;-63
2022/01/23 17:53:55;;;;;;;12.85;6.97;;;;;;;;;;4957658;28;20033;-62
2022/01/23 17:56:21;;;;;;;13.02;7.07;;;;;;;;;;4974858;28;20030;-62